Latest Weather Observations for Sheffield

IDT60801

Issued at 3:31 am EST Friday 19 August 2022 (issued every 10 minutes, with the page automatically refreshed every 10 minutes)

About weather observations | Map of weather stations | Latest weather observations for TAS | Other Formats
Station Details ID: 091291 Name: SHEFFIELD SCHOOL FARM Lat: -41.39 Lon: 146.32 Height: 294.2 m
Data from the previous 72 hours. | See also: Recent months at Sheffield
Date/Time
EST
Temp
°C
App
Temp
°C
Dew
Point
°C
Rel
Hum
%
Delta-T
°C
Wind Press
QNH
hPa
Press
MSL
hPa
Rain since
9am
mm
Dir  Spd
km/h
Gust
km/h
Spd
kts
Gust
kts
19/03:30am 4.7 0.9 3.7 93 0.4 NW 13 17 7 9 1005.1 1005.5 7.6
19/03:00am 5.0 0.4 3.7 91 0.6 NNW 17 20 9 11 1004.7 1005.2 7.6
19/02:30am 5.1 1.0 4.1 93 0.4 NNW 15 19 8 10 1004.7 1005.2 7.6
19/02:00am 5.3 1.2 4.4 94 0.4 NNW 15 17 8 9 1004.7 1005.2 7.6
19/01:30am 5.8 1.7 4.4 91 0.6 NNW 15 17 8 9 1004.6 1005.1 7.6
19/01:00am 6.0 2.8 5.0 93 0.4 NNW 11 15 6 8 1004.3 1004.8 7.6
19/12:30am 6.0 2.7 4.8 92 0.5 NNW 11 13 6 7 1004.3 1004.8 7.6
19/12:00am 6.3 3.1 4.9 91 0.6 NNW 11 15 6 8 1004.2 1004.7 7.6
 
Date/Time
EST
Temp
°C
App
Temp
°C
Dew
Point
°C
Rel
Hum
%
Delta-T
°C
Wind Press
QNH
hPa
Press
MSL
hPa
Rain since
9am
mm
Dir  Spd
km/h
Gust
km/h
Spd
kts
Gust
kts
18/11:30pm 6.5 3.2 4.7 88 0.8 NW 11 19 6 10 1004.0 1004.5 7.6
18/11:00pm 7.1 3.6 5.4 89 0.8 NW 13 19 7 10 1003.9 1004.4 7.6
18/10:30pm 6.4 2.8 5.2 92 0.5 NNW 13 17 7 9 1003.9 1004.4 7.6
18/10:00pm 6.8 4.1 5.4 91 0.6 NNW 9 11 5 6 1003.5 1004.0 7.6
18/09:30pm 6.4 4.1 4.9 90 0.7 NW 6 9 3 5 1003.4 1003.9 7.6
18/09:00pm 6.6 3.7 4.8 88 0.8 NW 9 15 5 8 1003.2 1003.7 7.6
18/08:30pm 7.0 3.4 4.8 86 1.0 NW 13 17 7 9 1002.9 1003.4 7.6
18/08:00pm 7.5 4.2 4.8 83 1.2 NW 11 17 6 9 1002.7 1003.1 7.6
18/07:30pm 8.1 4.5 5.2 82 1.3 WNW 13 17 7 9 1002.3 1002.7 7.6
18/07:00pm 8.2 3.4 4.6 78 1.6 NW 19 28 10 15 1002.0 1002.4 7.6
18/06:30pm 8.8 2.9 4.0 72 2.1 WNW 24 32 13 17 1001.1 1001.6 7.6
18/06:00pm 9.1 3.7 4.5 73 2.1 WNW 22 32 12 17 1000.8 1001.3 7.6
18/05:30pm 9.8 5.4 4.8 71 2.3 W 17 35 9 19 1000.1 1000.6 7.6
18/05:00pm 10.6 5.1 6.0 73 2.2 WNW 24 39 13 21 999.3 999.7 7.6
18/04:30pm 10.8 5.7 7.5 80 1.6 NW 24 32 13 17 998.6 999.0 7.6
18/04:00pm 11.0 5.2 7.9 81 1.5 NW 28 41 15 22 998.0 998.4 7.6
18/03:30pm 11.2 6.3 8.6 84 1.3 NW 24 43 13 23 997.8 998.2 7.6
18/03:00pm 11.6 5.5 8.3 80 1.7 NW 30 41 16 22 997.3 997.8 7.6
18/02:30pm 11.4 4.4 8.6 83 1.4 NW 35 54 19 29 997.5 998.0 7.6
18/02:03pm 11.4 3.2 8.3 81 1.5 NW 41 63 22 34 996.7 997.1 7.6
18/02:00pm 11.5 3.4 8.5 82 1.5 NW 41 57 22 31 996.8 997.2 7.6
18/01:30pm 11.1 2.8 9.4 89 0.9 NW 43 67 23 36 996.7 997.1 7.6
18/01:00pm 10.3 4.3 10.1 99 0.1 NW 32 50 17 27 997.4 997.9 4.8
18/12:30pm 10.6 3.3 10.3 98 0.2 NW 39 57 21 31 997.5 998.0 2.2
18/12:07pm 10.7 3.3 9.8 94 0.5 NW 39 57 21 31 997.9 998.3 1.8
18/12:00pm 10.7 3.7 9.8 94 0.5 NNW 37 56 20 30 998.0 998.4 1.8
18/11:30am 10.9 3.8 9.5 91 0.7 NW 37 50 20 27 998.6 999.0 1.8
18/11:00am 10.3 2.2 10.0 98 0.2 NW 43 59 23 32 999.1 999.5 1.6
18/10:30am 10.3 2.6 10.1 99 0.1 NNW 41 63 22 34 999.1 999.5 1.0
18/10:17am 10.2 3.6 10.1 99 0.1 NNW 35 54 19 29 999.3 999.7 0.6
18/10:00am 10.3 4.1 10.1 99 0.1 NNW 33 50 18 27 999.8 1000.2 0.2
18/09:43am 10.2 4.0 10.1 99 0.1 NNW 33 54 18 29 1000.1 1000.6 0.0
18/09:30am 10.1 4.1 10.0 99 0.1 NNW 32 48 17 26 1000.3 1000.8 0.0
18/09:06am 10.1 3.1 10.0 99 0.1 NNW 37 61 20 33 1000.5 1001.0 0.0
18/09:00am 10.1 3.5 10.0 99 0.1 NNW 35 50 19 27 1000.6 1001.1 21.8
18/08:30am 10.0 3.9 9.9 99 0.1 NNW 32 54 17 29 1001.0 1001.5 21.2
18/08:29am 10.0 3.9 9.9 99 0.1 NNW 32 54 17 29 1001.0 1001.5 21.0
18/08:00am 9.9 3.8 9.8 99 0.1 NNW 32 43 17 23 1001.4 1001.8 19.0
18/07:30am 9.9 3.8 9.8 99 0.1 NNW 32 46 17 25 1001.8 1002.2 17.6
18/07:00am 9.9 3.8 9.8 99 0.1 NW 32 41 17 22 1002.2 1002.6 15.6
18/06:30am 9.9 4.6 9.8 99 0.1 NNW 28 48 15 26 1002.3 1002.7 14.2
18/06:21am 9.9 4.6 9.8 99 0.1 NNW 28 46 15 25 1002.2 1002.6 14.0
18/06:00am 9.8 4.5 9.7 99 0.1 NW 28 41 15 22 1002.5 1002.9 13.6
18/05:30am 9.8 5.2 9.7 99 0.1 NNW 24 39 13 21 1002.8 1003.2 12.6
18/05:14am 9.8 4.1 9.7 99 0.1 NW 30 48 16 26 1003.3 1003.8 11.8
18/05:00am 9.7 3.6 9.6 99 0.1 NNW 32 44 17 24 1003.0 1003.5 11.4
18/04:41am 9.7 3.0 9.6 99 0.1 NNW 35 54 19 29 1002.9 1003.4 10.8
18/04:30am 9.7 3.4 9.6 99 0.1 NNW 33 48 18 26 1003.2 1003.7 10.6
18/04:25am 9.7 3.9 9.6 99 0.1 NNW 30 48 16 26 1003.1 1003.6 10.2
18/04:00am 9.7 3.6 9.6 99 0.1 NNW 32 48 17 26 1003.4 1003.9 9.4
18/03:30am 9.7 3.9 9.6 99 0.1 NNW 30 39 16 21 1003.9 1004.4 8.6
18/03:00am 9.7 3.6 9.6 99 0.1 NNW 32 46 17 25 1004.6 1005.1 7.8
18/02:30am 9.6 4.6 9.5 99 0.1 NNW 26 39 14 21 1005.1 1005.5 6.0
18/02:00am 9.6 5.0 9.5 99 0.1 NW 24 33 13 18 1006.1 1006.6 4.8
18/01:30am 9.6 5.9 9.5 99 0.1 NNW 19 26 10 14 1006.7 1007.2 3.6
18/01:00am 9.6 5.0 9.5 99 0.1 NNW 24 35 13 19 1007.3 1007.8 2.2
18/12:30am 9.5 4.5 9.4 99 0.1 NNW 26 37 14 20 1007.5 1008.0 2.0
18/12:00am 9.5 5.6 9.4 99 0.1 NW 20 30 11 16 1008.4 1008.8 1.8
 
Date/Time
EST
Temp
°C
App
Temp
°C
Dew
Point
°C
Rel
Hum
%
Delta-T
°C
Wind Press
QNH
hPa
Press
MSL
hPa
Rain since
9am
mm
Dir  Spd
km/h
Gust
km/h
Spd
kts
Gust
kts
17/11:30pm 9.4 5.1 9.3 99 0.1 NNW 22 35 12 19 1008.6 1009.1 1.8
17/11:00pm 9.3 5.5 9.2 99 0.1 NW 19 24 10 13 1009.0 1009.5 1.4
17/10:30pm 9.0 4.2 8.9 99 0.0 NNW 24 33 13 18 1009.3 1009.8 1.4
17/10:00pm 9.2 5.2 9.1 99 0.1 NNW 20 30 11 16 1009.7 1010.2 1.4
17/09:30pm 9.0 5.0 8.9 99 0.0 NW 20 28 11 15 1010.3 1010.8 1.4
17/09:00pm 8.8 5.7 8.7 99 0.0 NW 15 22 8 12 1010.6 1011.1 0.2
17/08:30pm 8.6 5.8 8.5 99 0.0 NNW 13 17 7 9 1010.6 1011.1 0.0
17/08:00pm 8.5 6.0 8.2 98 0.1 NNW 11 15 6 8 1010.9 1011.4 0.0
17/07:30pm 8.5 5.9 7.9 96 0.3 NNW 11 17 6 9 1011.2 1011.7 0.0
17/07:00pm 8.6 6.4 8.0 96 0.3 N 9 15 5 8 1011.4 1012.0 0.0
17/06:30pm 8.4 6.5 7.6 95 0.4 NNW 7 11 4 6 1011.7 1012.3 0.0
17/06:00pm 8.4 6.1 7.3 93 0.5 N 9 13 5 7 1012.2 1012.7 0.0
17/05:30pm 8.5 6.1 7.0 90 0.7 N 9 11 5 6 1012.4 1012.9 0.0
17/05:00pm 8.5 6.0 6.6 88 0.9 NNW 9 13 5 7 1012.6 1013.1 0.0
17/04:30pm 8.7 5.8 6.5 86 1.0 NNW 11 17 6 9 1012.3 1012.8 0.0
17/04:00pm 8.8 4.6 5.9 82 1.3 NNW 17 24 9 13 1012.6 1013.1 0.0
17/03:30pm 9.0 5.6 5.9 81 1.4 N 13 20 7 11 1012.7 1013.2 0.0
17/03:00pm 9.4 5.3 6.3 81 1.5 NNW 17 22 9 12 1013.0 1013.5 0.0
17/02:30pm 9.7 6.2 7.0 83 1.3 NNW 15 20 8 11 1013.0 1013.5 0.0
17/02:00pm 10.9 8.2 7.2 78 1.8 N 11 15 6 8 1013.1 1013.6 0.0
17/01:30pm 10.5 8.1 7.2 80 1.6 NNW 9 13 5 7 1013.6 1014.1 0.0
17/01:00pm 10.9 8.6 7.6 80 1.6 NW 9 15 5 8 1013.7 1014.2 0.0
17/12:30pm 10.3 8.7 7.9 85 1.2 NNW 6 9 3 5 1014.6 1015.2 0.0
17/12:00pm 10.2 8.0 8.0 86 1.1 NW 9 11 5 6 1015.4 1016.0 0.0
17/11:30am 9.5 7.7 7.1 85 1.1 SE 6 7 3 4 1015.7 1016.2 0.0
17/11:00am 9.5 8.4 7.1 85 1.1 SE 2 7 1 4 1016.2 1016.7 0.0
17/10:30am 9.2 8.6 7.3 88 0.9 CALM 0 4 0 2 1016.6 1017.1 0.0
17/10:00am 8.4 7.3 6.7 89 0.8 SSE 2 4 1 2 1016.2 1016.7 0.0
17/09:30am 7.2 6.0 6.3 94 0.4 WNW 2 6 1 3 1016.4 1016.9 0.0
17/09:00am 6.4 5.2 6.3 99 0.0 SW 2 6 1 3 1016.4 1016.9 0.0
17/08:30am 5.8 4.4 5.7 99 0.0 SSW 2 6 1 3 1016.5 1017.0 0.0
17/08:00am 4.2 2.8 3.8 97 0.2 CALM 0 0 0 0 1016.0 1016.5 0.0
17/07:30am 4.4 3.0 3.8 96 0.3 CALM 0 0 0 0 1016.3 1016.8 0.0
17/07:00am 4.4 2.6 3.5 94 0.4 SSW 2 4 1 2 1016.2 1016.7 0.0
17/06:30am 4.6 3.3 3.9 95 0.3 CALM 0 0 0 0 1015.6 1016.1 0.0
17/06:00am 4.4 2.2 3.5 94 0.4 SW 4 7 2 4 1015.6 1016.1 0.0
17/05:30am 4.5 2.0 3.8 95 0.3 SW 6 7 3 4 1015.3 1015.9 0.0
17/05:00am 4.8 2.3 3.5 91 0.5 W 6 7 3 4 1015.2 1015.8 0.0
17/04:30am 5.2 3.2 4.2 93 0.4 N 4 7 2 4 1015.0 1015.6 0.0
17/04:00am 5.7 3.8 4.8 94 0.4 N 4 6 2 3 1015.0 1015.6 0.0
17/03:30am 5.0 3.3 4.0 93 0.4 W 2 4 1 2 1014.6 1015.2 0.0
17/03:00am 4.7 2.2 3.5 92 0.5 WSW 6 7 3 4 1014.5 1015.1 0.0
17/02:30am 5.8 4.2 4.3 90 0.7 WNW 2 6 1 3 1014.5 1015.1 0.0
17/02:00am 6.0 4.0 4.5 90 0.7 NW 4 6 2 3 1014.5 1015.1 0.0
17/01:30am 6.8 4.5 5.0 88 0.8 E 6 7 3 4 1014.6 1015.2 0.0
17/01:00am 5.0 3.1 2.9 86 0.9 E 2 9 1 5 1014.1 1014.6 0.0
17/12:30am 5.5 3.0 3.5 87 0.9 SE 6 7 3 4 1014.0 1014.5 0.0
17/12:00am 7.1 5.5 4.4 83 1.2 W 2 4 1 2 1014.3 1014.9 0.0
 
Date/Time
EST
Temp
°C
App
Temp
°C
Dew
Point
°C
Rel
Hum
%
Delta-T
°C
Wind Press
QNH
hPa
Press
MSL
hPa
Rain since
9am
mm
Dir  Spd
km/h
Gust
km/h
Spd
kts
Gust
kts
16/11:30pm 7.2 5.2 4.2 81 1.3 N 4 6 2 3 1014.3 1014.9 0.0
16/11:00pm 8.0 5.7 4.6 79 1.5 N 6 9 3 5 1014.0 1014.5 0.0
16/10:30pm 8.6 6.2 4.2 74 2.0 W 6 9 3 5 1013.9 1014.4 0.0
16/10:00pm 9.7 7.8 4.7 71 2.3 NNE 4 7 2 4 1013.9 1014.4 0.0
16/09:30pm 8.7 6.6 4.1 73 2.0 ESE 4 7 2 4 1013.7 1014.2 0.0
16/09:00pm 9.8 7.3 5.0 72 2.2 W 7 11 4 6 1013.6 1014.1 0.0
16/08:30pm 9.0 7.1 5.0 76 1.8 NE 4 7 2 4 1013.6 1014.1 0.0
16/08:00pm 10.1 6.2 5.3 72 2.2 W 15 22 8 12 1013.5 1014.0 0.0
16/07:30pm 10.3 6.8 5.5 72 2.2 W 13 19 7 10 1013.1 1013.6 0.0
16/07:00pm 10.9 6.7 5.7 70 2.4 W 17 24 9 13 1013.0 1013.5 0.0
16/06:30pm 10.9 7.8 5.7 70 2.4 WNW 11 20 6 11 1012.2 1012.7 0.0
16/06:00pm 11.9 8.5 5.8 66 2.9 SW 13 19 7 10 1010.7 1011.2 0.0
16/05:30pm 12.2 8.0 5.8 65 3.0 SW 17 24 9 13 1009.7 1010.2 0.0
16/05:00pm 13.0 10.4 6.1 63 3.3 SW 9 17 5 9 1009.5 1010.0 0.0
16/04:30pm 13.9 10.4 7.0 63 3.4 SW 15 20 8 11 1009.1 1009.6 0.0
16/04:00pm 14.1 10.1 6.5 60 3.7 SW 17 22 9 12 1008.8 1009.3 0.0
16/03:30pm 14.6 12.3 5.7 55 4.3 WSW 7 11 4 6 1008.7 1009.2 0.0
16/03:00pm 14.5 12.5 6.3 58 4.0 SW 6 7 3 4 1008.2 1008.7 0.0
16/02:30pm 14.9 12.5 5.1 52 4.7 SSW 7 13 4 7 1008.0 1008.5 0.0
16/02:00pm 15.1 12.5 5.9 54 4.5 SSW 9 15 5 8 1007.6 1008.1 0.0
16/01:30pm 14.6 11.9 7.2 61 3.7 W 11 20 6 11 1007.4 1007.9 0.0
16/01:00pm 15.0 11.8 6.8 58 4.1 WSW 13 39 7 21 1007.3 1007.8 0.0
16/12:30pm 14.0 11.6 6.8 62 3.5 W 9 13 5 7 1007.2 1007.7 0.0
16/12:00pm 13.7 12.5 6.3 61 3.6 ESE 2 6 1 3 1007.1 1007.6 0.0
16/11:30am 13.8 12.5 6.2 60 3.7 E 2 6 1 3 1006.9 1007.4 0.0
16/11:00am 12.3 11.3 5.7 64 3.1 CALM 0 4 0 2 1006.6 1007.1 0.0
16/10:30am 12.5 8.9 5.2 61 3.4 SSW 13 20 7 11 1006.5 1007.0 0.0
16/10:00am 12.4 9.4 5.8 64 3.2 WSW 11 17 6 9 1006.4 1006.9 0.0
16/09:30am 12.2 9.7 6.7 69 2.7 WSW 9 17 5 9 1005.9 1006.4 0.0
16/09:00am 11.3 6.8 6.0 70 2.5 WSW 19 28 10 15 1005.2 1005.6 3.0
16/08:30am 10.6 5.4 5.4 70 2.4 WSW 22 32 12 17 1004.6 1005.1 3.0
16/08:00am 9.9 6.2 4.7 70 2.4 W 13 19 7 10 1004.2 1004.7 3.0
16/07:30am 8.9 5.1 3.9 71 2.2 WSW 13 17 7 9 1003.6 1004.1 2.8
16/07:00am 9.3 5.5 3.9 69 2.4 WSW 13 17 7 9 1003.1 1003.6 2.8
16/06:30am 9.3 6.8 3.7 68 2.5 WSW 6 13 3 7 1002.5 1002.9 2.8
16/06:00am 8.7 5.7 3.9 72 2.1 WSW 9 13 5 7 1002.0 1002.4 2.8
16/05:30am 7.9 4.1 4.1 77 1.7 WSW 13 17 7 9 1001.7 1002.1 2.8
16/05:00am 8.0 4.2 3.8 75 1.9 WSW 13 20 7 11 1001.3 1001.7 2.8
16/04:30am 8.7 4.1 3.7 71 2.2 WSW 17 26 9 14 1000.7 1001.2 2.8
16/04:00am 9.2 4.0 3.6 68 2.5 SW 20 35 11 19 1000.3 1000.8 2.8

Other formats

Comma delimited format used in spreadsheet applications
http://www.bom.gov.au/fwo/IDT60801/IDT60801.94955.axf

JavaScript Object Notation format (JSON) in row-major order
http://www.bom.gov.au/fwo/IDT60801/IDT60801.94955.json

Data quality

Most of these data are generated automatically and are frequently updated. Quality checks on data are not normally performed. It is possible for incorrect values to appear. Refer to information at About Latest Weather Observations and please check the disclaimer before using these data.